Time;durP1;ratioP1;P1;durP2;ratioP2;P2;SDS_P1;SDS_P2;PMS_P1;PMS_P2;Temp;Humidity;BMP_temperature;BMP_pressure;BME280_temperature;BME280_humidity;BME280_pressure;Samples;Min_cycle;Max_cycle;Signal;HPM_P1;HPM_P2
2021/10/03 00:00:59;;;;;;;1.30;1.20;;;16.80;99.90;;;;;;5056282;28;20689;-79
2021/10/03 00:03:26;;;;;;;1.80;1.30;;;16.80;99.90;;;;;;5061924;28;20191;-80
2021/10/03 00:05:56;;;;;;;1.27;1.17;;;16.90;99.90;;;;;;5073101;28;20286;-80
2021/10/03 00:08:25;;;;;;;2.40;1.10;;;16.90;99.90;;;;;;5073101;28;20200;-79
2021/10/03 00:10:54;;;;;;;2.33;1.20;;;16.80;99.90;;;;;;5072746;28;20187;-79
2021/10/03 00:13:23;;;;;;;1.40;1.10;;;16.90;99.90;;;;;;5059763;28;20204;-78
2021/10/03 00:15:50;;;;;;;1.40;1.10;;;16.80;99.90;;;;;;5057609;28;20196;-79
2021/10/03 00:18:17;;;;;;;1.20;1.10;;;16.80;99.90;;;;;;5070257;28;20192;-79
2021/10/03 00:20:44;;;;;;;2.37;0.93;;;16.90;99.90;;;;;;5052599;28;20296;-79
2021/10/03 00:23:13;;;;;;;1.63;1.30;;;16.80;99.90;;;;;;5052781;28;20635;-79
2021/10/03 00:25:40;;;;;;;1.83;1.20;;;16.80;99.90;;;;;;5070369;28;20290;-80
2021/10/03 00:28:08;;;;;;;1.43;1.00;;;16.90;99.90;;;;;;5070402;28;20200;-79
2021/10/03 00:30:37;;;;;;;1.77;1.10;;;16.90;99.90;;;;;;5060682;28;20720;-79
2021/10/03 00:33:04;;;;;;;0.90;0.90;;;16.90;99.90;;;;;;5072767;28;20250;-79
2021/10/03 00:35:31;;;;;;;1.33;1.10;;;16.90;99.90;;;;;;5072387;28;20895;-79
2021/10/03 00:38:01;;;;;;;2.30;1.30;;;16.90;99.90;;;;;;5071032;28;20315;-81
2021/10/03 00:40:31;;;;;;;1.20;1.10;;;16.90;99.90;;;;;;5064237;28;20208;-80
2021/10/03 00:43:00;;;;;;;1.80;1.07;;;16.90;99.90;;;;;;5072310;28;20199;-80
2021/10/03 00:45:28;;;;;;;1.60;0.90;;;16.90;99.90;;;;;;5069897;28;20547;-80
2021/10/03 00:47:55;;;;;;;1.43;0.90;;;17.00;99.90;;;;;;5066988;28;20623;-79
2021/10/03 00:50:22;;;;;;;1.63;1.10;;;17.00;99.90;;;;;;5058801;28;20703;-78
2021/10/03 00:52:49;;;;;;;2.03;1.10;;;16.90;99.90;;;;;;5071819;28;20723;-78
2021/10/03 00:55:17;;;;;;;0.83;0.80;;;16.90;99.90;;;;;;5068213;28;20191;-79
2021/10/03 00:57:49;;;;;;;1.47;0.90;;;16.90;99.90;;;;;;5069342;28;20215;-79
2021/10/03 01:00:20;;;;;;;1.30;1.00;;;16.90;99.90;;;;;;5064926;28;20188;-79
2021/10/03 01:02:47;;;;;;;1.13;0.90;;;16.90;99.90;;;;;;5062459;28;20555;-79
2021/10/03 01:05:15;;;;;;;1.77;0.90;;;16.90;99.90;;;;;;5064721;28;20192;-79
2021/10/03 01:07:42;;;;;;;1.20;0.90;;;16.90;99.90;;;;;;5062909;28;20290;-79
2021/10/03 01:10:11;;;;;;;2.33;0.80;;;16.80;99.90;;;;;;5064970;28;20196;-79
2021/10/03 01:12:40;;;;;;;0.87;0.80;;;16.90;99.90;;;;;;5063991;28;20275;-78
2021/10/03 01:15:09;;;;;;;1.37;1.00;;;16.90;99.90;;;;;;5062301;28;20254;-79
2021/10/03 01:17:36;;;;;;;1.77;1.00;;;16.90;99.90;;;;;;5052446;28;20224;-79
2021/10/03 01:20:05;;;;;;;1.50;1.00;;;16.90;99.90;;;;;;5064531;28;20644;-78
2021/10/03 01:22:35;;;;;;;1.43;1.20;;;16.90;99.90;;;;;;5065549;28;20306;-77
2021/10/03 01:25:02;;;;;;;1.67;1.13;;;16.90;99.90;;;;;;5070967;28;20246;-78
2021/10/03 01:27:29;;;;;;;1.73;1.37;;;17.00;99.90;;;;;;5071320;28;20200;-78
2021/10/03 01:29:56;;;;;;;1.27;1.17;;;16.90;99.90;;;;;;5070318;28;20249;-79
2021/10/03 01:32:23;;;;;;;0.90;0.90;;;16.90;99.90;;;;;;5071563;28;20290;-79
2021/10/03 01:34:50;;;;;;;2.50;1.20;;;16.80;99.90;;;;;;5058066;28;20642;-79
2021/10/03 01:37:16;;;;;;;1.07;0.93;;;16.90;99.90;;;;;;5062141;28;20226;-79
2021/10/03 01:39:45;;;;;;;1.17;1.00;;;16.90;99.90;;;;;;5067637;28;20196;-79
2021/10/03 01:42:12;;;;;;;2.90;1.00;;;16.90;99.90;;;;;;5075689;28;20635;-79
2021/10/03 01:44:38;;;;;;;2.17;1.40;;;16.90;99.90;;;;;;5074032;28;20191;-79
2021/10/03 01:47:05;;;;;;;1.93;1.40;;;16.90;99.90;;;;;;5075232;28;20623;-79
2021/10/03 01:49:32;;;;;;;2.97;1.37;;;16.90;99.90;;;;;;5063776;28;20329;-78
2021/10/03 01:51:59;;;;;;;1.60;1.20;;;16.90;99.90;;;;;;5069146;28;20257;-79
2021/10/03 01:54:27;;;;;;;2.73;1.30;;;16.90;99.90;;;;;;5064539;28;20200;-79
2021/10/03 01:56:55;;;;;;;3.93;1.50;;;16.90;99.90;;;;;;5069915;28;20583;-79
2021/10/03 01:59:22;;;;;;;1.87;1.50;;;16.90;99.90;;;;;;5070650;28;20191;-79
2021/10/03 02:01:49;;;;;;;2.10;1.30;;;17.00;99.90;;;;;;5066021;28;20222;-79
2021/10/03 02:04:17;;;;;;;1.57;1.47;;;17.00;99.90;;;;;;5073099;28;20290;-80
2021/10/03 02:06:45;;;;;;;2.30;1.70;;;17.00;99.90;;;;;;5070840;28;20239;-79
2021/10/03 02:09:14;;;;;;;2.10;1.70;;;17.00;99.90;;;;;;5061096;28;20220;-79
2021/10/03 02:11:43;;;;;;;2.33;1.60;;;17.00;99.90;;;;;;5065317;28;20187;-80
2021/10/03 02:14:14;;;;;;;1.73;1.13;;;17.00;99.90;;;;;;5069590;28;20210;-79
2021/10/03 02:16:42;;;;;;;2.00;1.00;;;16.90;99.90;;;;;;5065326;28;20192;-81
2021/10/03 02:19:09;;;;;;;4.73;0.87;;;16.90;99.90;;;;;;5066061;28;20202;-80
2021/10/03 02:21:37;;;;;;;2.20;0.83;;;16.80;99.90;;;;;;5069706;28;20786;-80
2021/10/03 02:24:06;;;;;;;3.50;0.83;;;16.70;99.90;;;;;;5068187;28;20275;-79
2021/10/03 02:26:33;;;;;;;2.57;0.80;;;16.60;99.90;;;;;;5062221;28;20207;-79
2021/10/03 02:29:00;;;;;;;1.73;0.73;;;16.40;99.90;;;;;;5059956;28;20282;-80
2021/10/03 02:31:29;;;;;;;2.00;0.60;;;16.30;99.90;;;;;;5073901;28;20207;-79
2021/10/03 02:33:56;;;;;;;2.57;0.70;;;16.20;99.90;;;;;;5071542;28;20226;-79
2021/10/03 02:36:24;;;;;;;6.90;0.73;;;16.10;99.90;;;;;;5073412;28;20278;-79
2021/10/03 02:38:52;;;;;;;1.93;0.67;;;16.00;99.90;;;;;;5067978;28;20314;-80
2021/10/03 02:41:19;;;;;;;1.87;0.80;;;15.90;99.90;;;;;;5068492;28;20510;-79
2021/10/03 02:43:49;;;;;;;2.93;0.50;;;15.90;99.90;;;;;;5074136;28;20223;-78
2021/10/03 02:46:18;;;;;;;4.17;0.50;;;15.80;99.90;;;;;;5061498;28;20274;-79
2021/10/03 02:48:50;;;;;;;0.80;0.40;;;15.80;99.90;;;;;;5074084;28;20231;-79
2021/10/03 02:51:18;;;;;;;2.07;0.50;;;15.80;99.90;;;;;;5073929;28;20401;-79
2021/10/03 02:53:47;;;;;;;0.77;0.40;;;15.90;99.90;;;;;;5067366;28;20231;-79
2021/10/03 02:56:14;;;;;;;3.63;0.57;;;15.90;99.90;;;;;;5063932;28;20228;-79
2021/10/03 02:58:42;;;;;;;1.10;0.40;;;15.90;99.90;;;;;;5072122;28;20219;-79
2021/10/03 03:01:09;;;;;;;1.90;0.60;;;15.90;99.90;;;;;;5063964;28;20291;-79
2021/10/03 03:03:36;;;;;;;2.63;0.50;;;15.90;99.90;;;;;;5061149;28;20254;-78
2021/10/03 03:06:05;;;;;;;3.83;0.50;;;15.80;99.90;;;;;;5055629;28;20542;-79
2021/10/03 03:08:32;;;;;;;1.87;0.60;;;15.90;99.90;;;;;;5067724;28;20547;-79
2021/10/03 03:10:59;;;;;;;2.27;0.50;;;15.90;99.90;;;;;;5057223;28;20239;-79
2021/10/03 03:13:27;;;;;;;6.27;0.60;;;15.70;99.90;;;;;;5061414;28;20196;-79
2021/10/03 03:15:54;;;;;;;4.23;0.80;;;15.70;99.90;;;;;;5068040;28;20291;-80
2021/10/03 03:18:22;;;;;;;0.57;0.40;;;15.80;99.90;;;;;;5053533;28;20219;-78
2021/10/03 03:20:49;;;;;;;1.37;0.77;;;15.80;99.90;;;;;;5058745;28;20199;-79
2021/10/03 03:23:17;;;;;;;0.30;0.20;;;15.70;99.90;;;;;;5060888;28;20210;-79
2021/10/03 03:25:44;;;;;;;1.70;0.30;;;15.60;99.90;;;;;;5054274;28;20200;-79
2021/10/03 03:28:12;;;;;;;1.20;0.40;;;15.60;99.90;;;;;;5074033;28;20286;-78
2021/10/03 03:30:39;;;;;;;0.33;0.20;;;15.50;99.90;;;;;;5070642;28;20199;-79
2021/10/03 03:33:06;;;;;;;1.80;0.40;;;15.40;99.90;;;;;;5081852;28;20294;-79
2021/10/03 03:35:34;;;;;;;0.57;0.30;;;15.30;99.90;;;;;;5073517;28;20291;-79
2021/10/03 03:38:02;;;;;;;2.10;0.30;;;15.10;99.90;;;;;;5073592;28;20218;-78
2021/10/03 03:40:30;;;;;;;1.70;0.50;;;15.10;99.90;;;;;;5072721;28;20205;-79
2021/10/03 03:42:57;;;;;;;1.00;0.50;;;14.80;99.90;;;;;;5056254;28;20199;-79
2021/10/03 03:45:24;;;;;;;3.50;0.50;;;14.80;99.90;;;;;;5053467;28;20222;-79
2021/10/03 03:47:51;;;;;;;0.40;0.40;;;14.80;99.90;;;;;;5053279;28;20291;-79
2021/10/03 03:50:18;;;;;;;2.43;0.63;;;14.80;99.90;;;;;;5053825;28;20192;-80
2021/10/03 03:52:46;;;;;;;1.83;0.70;;;14.90;99.90;;;;;;5053232;28;20196;-79
2021/10/03 03:55:13;;;;;;;1.63;0.50;;;14.90;99.90;;;;;;5053035;28;20246;-79
2021/10/03 03:57:41;;;;;;;3.03;0.60;;;15.00;99.90;;;;;;5059336;28;20222;-80
2021/10/03 04:00:10;;;;;;;3.33;0.60;;;14.90;99.90;;;;;;5073691;28;20286;-80
2021/10/03 04:02:38;;;;;;;1.60;0.40;;;14.80;99.90;;;;;;5059397;28;20287;-79
2021/10/03 04:05:06;;;;;;;2.43;0.50;;;14.80;99.90;;;;;;5053147;28;20200;-80
2021/10/03 04:07:33;;;;;;;1.80;0.50;;;14.80;99.90;;;;;;5060432;28;20286;-80
2021/10/03 04:10:00;;;;;;;0.90;0.50;;;14.80;99.90;;;;;;5070301;28;20256;-80
2021/10/03 04:12:27;;;;;;;2.43;0.50;;;14.90;99.90;;;;;;5071928;28;20227;-80
2021/10/03 04:14:55;;;;;;;2.87;0.77;;;14.90;99.90;;;;;;5072742;28;20195;-80
2021/10/03 04:17:22;;;;;;;1.50;0.50;;;14.90;99.90;;;;;;5072420;28;20286;-81
2021/10/03 04:19:49;;;;;;;3.63;0.63;;;14.80;99.90;;;;;;5068327;28;20211;-81
2021/10/03 04:22:16;;;;;;;2.13;0.70;;;14.90;99.90;;;;;;5059750;28;20203;-81
2021/10/03 04:24:43;;;;;;;1.20;0.60;;;15.00;99.90;;;;;;5052826;28;20287;-80
2021/10/03 04:27:10;;;;;;;0.87;0.50;;;15.10;99.90;;;;;;5054052;28;20219;-80
2021/10/03 04:29:36;;;;;;;1.40;0.60;;;15.00;99.90;;;;;;5052327;28;20279;-80
2021/10/03 04:32:05;;;;;;;1.90;0.50;;;14.80;99.90;;;;;;5052743;28;20299;-81
2021/10/03 04:34:32;;;;;;;2.97;0.50;;;14.80;99.90;;;;;;5053315;28;20285;-80
2021/10/03 04:36:59;;;;;;;1.30;0.60;;;14.90;99.90;;;;;;5053182;28;20198;-80
2021/10/03 04:39:26;;;;;;;1.73;0.67;;;14.90;99.90;;;;;;5052903;28;20298;-80
2021/10/03 04:41:54;;;;;;;2.43;0.47;;;14.80;99.90;;;;;;5065860;28;20271;-80
2021/10/03 04:44:20;;;;;;;4.20;0.47;;;14.80;99.90;;;;;;5071880;28;20294;-79
2021/10/03 04:46:47;;;;;;;1.20;0.50;;;14.90;99.90;;;;;;5072713;28;20291;-80
2021/10/03 04:49:16;;;;;;;1.23;0.60;;;14.80;99.90;;;;;;5073128;28;20286;-80
2021/10/03 04:51:42;;;;;;;1.97;0.63;;;14.70;99.90;;;;;;5061180;28;20203;-80
2021/10/03 04:54:09;;;;;;;0.93;0.43;;;14.50;99.90;;;;;;5066721;28;20195;-80
2021/10/03 04:56:36;;;;;;;1.83;0.50;;;14.60;99.90;;;;;;5052607;28;20287;-80
2021/10/03 04:59:03;;;;;;;1.87;0.60;;;14.80;99.90;;;;;;5059000;28;20298;-80
2021/10/03 05:01:30;;;;;;;1.40;0.30;;;14.80;99.90;;;;;;5071872;28;20246;-80
2021/10/03 05:03:57;;;;;;;0.77;0.57;;;14.80;99.90;;;;;;5070539;28;20231;-80
2021/10/03 05:06:26;;;;;;;0.60;0.43;;;14.90;99.90;;;;;;5063251;28;20230;-80
2021/10/03 05:08:53;;;;;;;1.27;0.60;;;14.60;99.90;;;;;;5052475;28;20238;-80
2021/10/03 05:11:20;;;;;;;2.10;0.50;;;14.50;99.90;;;;;;5059766;28;20232;-81
2021/10/03 05:13:47;;;;;;;2.27;0.60;;;14.70;99.90;;;;;;5052422;28;20196;-80
2021/10/03 05:16:14;;;;;;;1.63;0.50;;;14.80;99.90;;;;;;5070194;28;20294;-81
2021/10/03 05:18:41;;;;;;;2.10;0.50;;;15.00;99.90;;;;;;5067368;28;20247;-81
2021/10/03 05:21:08;;;;;;;2.30;0.50;;;15.10;99.90;;;;;;5056410;28;20193;-81
2021/10/03 05:23:36;;;;;;;3.10;0.80;;;15.10;99.90;;;;;;5056002;28;20231;-81
2021/10/03 05:26:03;;;;;;;1.77;0.70;;;15.10;99.90;;;;;;5056099;28;20295;-81
2021/10/03 05:28:30;;;;;;;3.60;0.50;;;15.10;99.90;;;;;;5065773;28;20286;-81
2021/10/03 05:30:57;;;;;;;1.60;0.50;;;15.00;99.90;;;;;;5070512;28;20283;-81
2021/10/03 05:33:24;;;;;;;2.50;0.57;;;14.90;99.90;;;;;;5070473;28;20207;-81
2021/10/03 05:35:51;;;;;;;0.60;0.60;;;14.60;99.90;;;;;;5073749;28;20196;-81
2021/10/03 05:38:18;;;;;;;2.50;0.63;;;14.50;99.90;;;;;;5075823;28;20659;-81
2021/10/03 05:40:46;;;;;;;2.10;0.70;;;14.70;99.90;;;;;;5074936;28;20723;-81
2021/10/03 05:43:13;;;;;;;0.77;0.53;;;14.80;99.90;;;;;;5075832;28;20290;-81
2021/10/03 05:45:40;;;;;;;0.93;0.47;;;14.40;99.90;;;;;;5074568;28;20230;-81
2021/10/03 05:48:07;;;;;;;2.70;1.00;;;14.10;99.90;;;;;;5073636;28;20278;-81
2021/10/03 05:50:34;;;;;;;4.93;0.40;;;13.90;99.90;;;;;;5056982;28;20676;-81
2021/10/03 05:53:01;;;;;;;3.70;0.80;;;13.80;99.90;;;;;;5075572;28;20345;-82
2021/10/03 05:55:27;;;;;;;2.90;0.60;;;13.80;99.90;;;;;;5073927;28;20199;-80
2021/10/03 05:57:56;;;;;;;0.77;0.50;;;13.70;99.90;;;;;;5067890;28;20305;-80
2021/10/03 06:00:22;;;;;;;1.80;0.60;;;13.80;99.90;;;;;;5075388;28;20290;-81
2021/10/03 06:02:49;;;;;;;0.80;0.50;;;13.70;99.90;;;;;;5071416;28;20202;-81
2021/10/03 06:05:16;;;;;;;1.20;0.67;;;13.50;99.90;;;;;;5068258;28;20266;-81
2021/10/03 06:07:43;;;;;;;3.77;0.73;;;13.40;99.90;;;;;;5060068;28;20192;-82
2021/10/03 06:10:10;;;;;;;4.83;0.73;;;13.30;99.90;;;;;;5065074;28;20278;-81
2021/10/03 06:12:38;;;;;;;2.03;0.80;;;13.20;99.90;;;;;;5068179;28;20258;-81
2021/10/03 06:15:09;;;;;;;2.80;0.90;;;13.20;99.90;;;;;;5058832;28;20232;-81
2021/10/03 06:17:36;;;;;;;3.60;0.70;;;13.20;99.90;;;;;;5061492;28;20250;-81
2021/10/03 06:20:04;;;;;;;2.50;0.90;;;13.20;99.90;;;;;;5073596;28;20624;-81
2021/10/03 06:22:31;;;;;;;4.30;1.33;;;13.30;99.90;;;;;;5071312;28;20617;-81
2021/10/03 06:24:58;;;;;;;2.73;1.10;;;13.10;99.90;;;;;;5055820;28;20283;-81
2021/10/03 06:27:25;;;;;;;4.07;1.17;;;13.10;99.90;;;;;;5055826;28;20290;-81
2021/10/03 06:29:53;;;;;;;2.23;1.20;;;13.00;99.90;;;;;;5074914;28;20402;-81
2021/10/03 06:32:21;;;;;;;7.67;1.73;;;13.10;99.90;;;;;;5073395;28;20202;-81
2021/10/03 06:34:49;;;;;;;3.33;1.40;;;13.10;99.90;;;;;;5074700;28;20564;-80
2021/10/03 06:37:16;;;;;;;4.27;1.60;;;13.10;99.90;;;;;;5067825;28;20196;-81
2021/10/03 06:39:43;;;;;;;3.00;1.50;;;13.10;99.90;;;;;;5064430;28;20283;-81
2021/10/03 06:42:10;;;;;;;3.50;1.50;;;13.00;99.90;;;;;;5079399;28;20536;-81
2021/10/03 06:44:37;;;;;;;2.70;1.50;;;12.80;99.90;;;;;;5093298;28;20734;-81
2021/10/03 06:47:08;;;;;;;2.63;1.60;;;12.70;99.90;;;;;;5074705;28;20286;-80
2021/10/03 06:49:37;;;;;;;4.17;1.90;;;12.80;99.90;;;;;;5058315;28;20291;-79
2021/10/03 06:52:04;;;;;;;5.93;1.60;;;12.90;99.90;;;;;;5054610;28;20201;-79
2021/10/03 06:54:31;;;;;;;4.87;1.80;;;13.00;99.90;;;;;;5054667;28;20283;-80
2021/10/03 06:56:58;;;;;;;4.07;1.67;;;13.00;99.90;;;;;;5067239;28;20250;-79
2021/10/03 06:59:25;;;;;;;4.13;1.77;;;13.00;99.90;;;;;;5068182;28;20225;-80
2021/10/03 07:01:53;;;;;;;4.10;1.57;;;13.00;99.90;;;;;;5065632;28;20195;-79
2021/10/03 07:04:20;;;;;;;1.53;1.40;;;13.00;99.90;;;;;;5059289;28;20379;-80
2021/10/03 07:06:48;;;;;;;3.13;1.60;;;12.90;99.90;;;;;;5058783;28;20224;-80
2021/10/03 07:09:15;;;;;;;3.00;1.60;;;12.90;99.90;;;;;;5053451;28;20282;-79
2021/10/03 07:11:42;;;;;;;2.07;1.50;;;12.90;99.90;;;;;;5054559;28;20276;-80
2021/10/03 07:14:09;;;;;;;3.50;1.57;;;12.90;99.90;;;;;;5053005;28;20294;-80
2021/10/03 07:16:36;;;;;;;2.90;1.97;;;13.00;99.90;;;;;;5067270;28;20199;-81
2021/10/03 07:19:03;;;;;;;2.43;2.07;;;13.00;99.90;;;;;;5072893;28;20714;-80
2021/10/03 07:21:30;;;;;;;6.83;2.20;;;13.10;99.90;;;;;;5070911;28;20691;-80
2021/10/03 07:23:58;;;;;;;2.87;1.73;;;13.10;99.90;;;;;;5065037;28;20662;-80
2021/10/03 07:26:25;;;;;;;2.30;1.93;;;13.30;99.90;;;;;;5067322;28;20205;-80
2021/10/03 07:28:52;;;;;;;2.40;1.83;;;13.20;99.90;;;;;;5066208;28;20597;-81
2021/10/03 07:31:19;;;;;;;1.60;1.50;;;13.20;99.90;;;;;;5054693;28;20192;-80
2021/10/03 07:33:47;;;;;;;2.20;1.10;;;13.20;99.90;;;;;;5052262;28;20208;-81
2021/10/03 07:36:16;;;;;;;1.10;1.00;;;13.30;99.90;;;;;;5053589;28;20199;-80
2021/10/03 07:38:43;;;;;;;1.90;1.10;;;13.40;99.90;;;;;;5053059;28;20278;-80
2021/10/03 07:41:12;;;;;;;1.13;1.00;;;13.30;99.90;;;;;;5070588;28;20290;-80
2021/10/03 07:43:39;;;;;;;1.57;1.03;;;13.30;99.90;;;;;;5065738;28;20374;-80
2021/10/03 07:46:06;;;;;;;4.13;1.20;;;13.40;99.90;;;;;;5058004;28;20268;-80
2021/10/03 07:48:33;;;;;;;2.10;0.90;;;13.50;99.90;;;;;;5072253;28;20201;-80
2021/10/03 07:51:00;;;;;;;1.53;1.10;;;13.70;99.90;;;;;;5072112;28;20196;-80
2021/10/03 07:53:27;;;;;;;2.90;0.97;;;13.70;99.90;;;;;;5072266;28;20195;-81
2021/10/03 07:55:54;;;;;;;1.73;1.13;;;13.90;99.90;;;;;;5070054;28;20231;-80
2021/10/03 07:58:22;;;;;;;2.30;1.00;;;13.80;99.90;;;;;;5060079;28;20199;-80
2021/10/03 08:00:50;;;;;;;1.10;0.80;;;13.80;99.90;;;;;;5051844;28;20683;-81
2021/10/03 08:03:17;;;;;;;1.30;1.07;;;13.80;99.90;;;;;;5058489;28;20191;-81
2021/10/03 08:05:44;;;;;;;1.10;1.00;;;13.80;99.90;;;;;;5072104;28;20282;-81
2021/10/03 08:08:11;;;;;;;1.40;1.10;;;13.90;99.90;;;;;;5069575;28;20569;-81
2021/10/03 08:10:39;;;;;;;3.53;1.10;;;13.90;99.90;;;;;;5069378;28;20278;-81
2021/10/03 08:13:06;;;;;;;1.83;1.00;;;14.00;99.90;;;;;;5069308;28;20334;-82
2021/10/03 08:15:35;;;;;;;3.30;1.20;;;14.00;99.90;;;;;;5068239;28;20255;-81
2021/10/03 08:18:04;;;;;;;2.93;1.37;;;14.00;99.90;;;;;;5070850;28;20188;-81
2021/10/03 08:20:31;;;;;;;1.50;1.30;;;14.20;99.90;;;;;;5070647;28;20292;-81
2021/10/03 08:22:58;;;;;;;3.77;1.10;;;14.10;99.90;;;;;;5069500;28;20282;-81
2021/10/03 08:25:25;;;;;;;1.07;0.97;;;13.90;99.90;;;;;;5071789;28;20198;-81
2021/10/03 08:27:52;;;;;;;4.63;1.20;;;14.10;99.90;;;;;;5067653;28;20635;-81
2021/10/03 08:30:20;;;;;;;1.20;1.10;;;14.00;99.90;;;;;;5069173;28;20281;-81
2021/10/03 08:32:48;;;;;;;2.00;1.07;;;13.70;99.90;;;;;;5065391;28;20284;-82
2021/10/03 08:35:15;;;;;;;1.70;1.00;;;13.70;99.90;;;;;;5056264;28;20224;-81
2021/10/03 08:37:43;;;;;;;2.17;1.27;;;13.80;99.90;;;;;;5052632;28;20283;-81
2021/10/03 08:40:12;;;;;;;2.07;1.30;;;14.00;99.90;;;;;;5053403;28;20235;-81
2021/10/03 08:42:40;;;;;;;1.77;1.13;;;14.30;99.90;;;;;;5059525;28;20282;-81
2021/10/03 08:45:08;;;;;;;2.90;1.30;;;14.40;99.90;;;;;;5067632;28;20275;-81
2021/10/03 08:47:37;;;;;;;1.93;1.70;;;14.50;99.90;;;;;;5061767;28;20195;-82
2021/10/03 08:50:09;;;;;;;3.87;1.60;;;14.50;99.90;;;;;;5074917;28;20208;-81
2021/10/03 08:52:39;;;;;;;2.70;1.40;;;14.30;99.90;;;;;;5061873;28;20563;-81
2021/10/03 08:55:06;;;;;;;2.53;1.30;;;14.20;99.90;;;;;;5056893;28;20214;-83
2021/10/03 08:57:33;;;;;;;2.03;1.07;;;14.30;99.90;;;;;;5064209;28;20286;-81
2021/10/03 09:00:07;;;;;;;2.17;0.80;;;14.30;99.90;;;;;;5062363;28;20308;-80
2021/10/03 09:02:55;;;;;;;1.70;0.90;;;14.20;99.90;;;;;;5063988;28;21959;-81
2021/10/03 09:05:25;;;;;;;1.83;1.00;;;14.30;99.90;;;;;;5073390;28;20206;-81
2021/10/03 09:08:00;;;;;;;1.20;1.10;;;14.40;99.90;;;;;;5069097;28;20202;-80
2021/10/03 09:10:27;;;;;;;1.17;1.07;;;14.40;99.90;;;;;;5072061;28;20282;-81
2021/10/03 09:12:57;;;;;;;3.07;1.30;;;14.60;99.90;;;;;;5071584;28;20290;-81
2021/10/03 09:15:25;;;;;;;4.50;1.30;;;14.60;99.90;;;;;;5063305;28;20279;-81
2021/10/03 09:17:54;;;;;;;2.40;1.90;;;14.70;99.90;;;;;;5068500;28;20657;-81
2021/10/03 09:20:24;;;;;;;3.20;2.20;;;14.80;99.90;;;;;;5062204;28;20306;-80
2021/10/03 09:23:00;;;;;;;2.00;1.80;;;14.70;99.90;;;;;;5064062;28;20188;-81
2021/10/03 09:25:32;;;;;;;3.40;2.50;;;14.80;99.90;;;;;;5068242;28;20552;-81
2021/10/03 09:27:59;;;;;;;3.97;2.77;;;15.00;99.90;;;;;;5070297;28;20195;-81
2021/10/03 09:30:26;;;;;;;7.90;4.20;;;15.20;99.90;;;;;;5058531;28;20221;-81
2021/10/03 09:32:56;;;;;;;6.77;4.20;;;15.20;99.90;;;;;;5064790;28;20223;-82
2021/10/03 09:35:27;;;;;;;8.63;4.30;;;15.30;99.90;;;;;;5066654;28;20211;-81
2021/10/03 09:37:54;;;;;;;5.70;4.07;;;15.40;99.90;;;;;;5062131;28;20212;-81
2021/10/03 09:40:23;;;;;;;5.40;3.37;;;15.50;99.90;;;;;;5063083;28;20215;-82
2021/10/03 09:42:54;;;;;;;7.83;4.77;;;15.60;99.90;;;;;;5063713;28;20669;-82
2021/10/03 09:45:22;;;;;;;6.77;4.30;;;15.60;99.90;;;;;;5066973;28;20655;-83
2021/10/03 09:48:01;;;;;;;4.83;3.73;;;15.60;99.90;;;;;;5074839;28;20199;-82
2021/10/03 09:50:30;;;;;;;5.20;3.70;;;15.50;99.90;;;;;;5062654;28;20198;-81
2021/10/03 09:52:59;;;;;;;3.53;3.10;;;15.10;99.90;;;;;;5062420;28;20632;-81
2021/10/03 09:55:26;;;;;;;4.40;3.20;;;15.10;99.90;;;;;;5061584;28;20210;-81
2021/10/03 09:57:56;;;;;;;4.90;3.47;;;15.10;99.90;;;;;;5060395;28;20196;-81
2021/10/03 10:00:25;;;;;;;5.37;3.77;;;15.00;99.90;;;;;;5062340;28;20248;-80
2021/10/03 10:02:53;;;;;;;4.90;3.70;;;15.00;99.90;;;;;;5063647;28;20242;-79
2021/10/03 10:05:22;;;;;;;3.60;3.30;;;15.10;99.90;;;;;;5063907;28;20748;-81
2021/10/03 10:07:51;;;;;;;4.33;3.33;;;15.10;99.90;;;;;;5066536;28;20192;-81
2021/10/03 10:10:18;;;;;;;4.73;3.23;;;15.10;99.90;;;;;;5071827;28;20200;-86
2021/10/03 10:12:51;;;;;;;6.23;3.60;;;15.10;99.90;;;;;;5071058;28;20242;-79
2021/10/03 10:15:22;;;;;;;4.90;4.00;;;15.10;99.90;;;;;;5069635;28;20294;-80
2021/10/03 10:17:52;;;;;;;5.73;3.73;;;15.10;99.90;;;;;;5072357;28;20211;-79
2021/10/03 10:20:38;;;;;;;5.37;4.20;;;15.20;99.90;;;;;;5070914;28;20222;-80
2021/10/03 10:23:10;;;;;;;4.67;3.83;;;15.20;99.90;;;;;;5061185;28;20536;-81
2021/10/03 10:25:40;;;;;;;4.10;3.40;;;15.30;99.90;;;;;;5054447;28;20680;-79
2021/10/03 10:28:09;;;;;;;3.93;3.17;;;15.40;99.90;;;;;;5055879;28;20677;-80
2021/10/03 10:30:53;;;;;;;4.93;3.57;;;15.20;99.90;;;;;;5055517;28;20542;-80
2021/10/03 10:33:21;;;;;;;8.20;4.20;;;15.30;99.90;;;;;;5051383;28;20301;-81
2021/10/03 10:35:50;;;;;;;6.60;4.77;;;15.20;99.90;;;;;;5071714;28;20633;-81
2021/10/03 10:38:21;;;;;;;7.00;5.27;;;15.30;99.90;;;;;;5072877;28;20203;-80
2021/10/03 10:40:52;;;;;;;8.23;6.23;;;15.30;99.90;;;;;;5057162;28;20270;-81
2021/10/03 10:43:46;;;;;;;7.17;5.17;;;15.40;99.90;;;;;;5067392;28;20200;-80
2021/10/03 10:46:45;;;;;;;6.20;4.30;;;15.30;99.90;;;;;;5067045;28;20682;-79
2021/10/03 10:49:37;;;;;;;6.20;4.60;;;15.10;99.90;;;;;;5063368;28;20192;-79
2021/10/03 10:52:40;;;;;;;5.43;4.20;;;15.10;99.90;;;;;;5069664;28;20235;-79
2021/10/03 10:55:28;;;;;;;8.80;4.50;;;15.10;99.90;;;;;;5070472;28;20237;-79
2021/10/03 10:58:11;;;;;;;9.47;4.20;;;15.10;99.90;;;;;;5068295;28;20279;-80
2021/10/03 11:01:06;;;;;;;5.23;3.77;;;14.90;99.90;;;;;;5056999;28;20220;-80
2021/10/03 11:04:07;;;;;;;4.83;3.77;;;14.90;99.90;;;;;;5073931;28;20290;-80
2021/10/03 11:07:02;;;;;;;4.97;3.47;;;14.80;99.90;;;;;;5061562;28;20207;-80
2021/10/03 11:09:31;;;;;;;5.33;3.27;;;14.80;99.90;;;;;;5054065;28;20227;-80
2021/10/03 11:12:08;;;;;;;5.03;4.17;;;14.80;99.90;;;;;;5053649;28;20271;-79
2021/10/03 11:14:37;;;;;;;5.63;4.20;;;14.70;99.90;;;;;;5054813;28;20291;-78
2021/10/03 11:17:09;;;;;;;5.73;4.80;;;14.70;99.90;;;;;;5069335;28;20261;-78
2021/10/03 11:19:43;;;;;;;9.03;6.00;;;14.60;99.90;;;;;;5073484;28;20200;-78
2021/10/03 11:22:12;;;;;;;12.03;6.20;;;14.40;99.90;;;;;;5059940;28;20201;-80
2021/10/03 11:24:42;;;;;;;11.73;7.20;;;14.30;99.90;;;;;;5065169;28;20289;-82
2021/10/03 11:27:12;;;;;;;13.80;6.70;;;14.00;99.90;;;;;;5073111;28;20551;-84
2021/10/03 11:29:42;;;;;;;14.43;7.47;;;13.90;99.90;;;;;;5064225;28;20290;-81
2021/10/03 11:32:10;;;;;;;15.83;8.17;;;13.90;99.90;;;;;;5063750;28;20199;-82
2021/10/03 11:34:38;;;;;;;10.67;7.40;;;13.90;99.90;;;;;;5063645;28;20298;-83
2021/10/03 11:37:07;;;;;;;8.00;5.30;;;13.90;99.90;;;;;;5070358;28;20286;-82
2021/10/03 11:39:41;;;;;;;6.80;5.27;;;13.70;99.90;;;;;;5056395;28;20302;-82
2021/10/03 11:42:11;;;;;;;6.47;4.80;;;13.50;99.90;;;;;;5064309;28;20192;-82
2021/10/03 11:44:40;;;;;;;4.93;3.67;;;13.30;99.90;;;;;;5073545;28;20666;-81
2021/10/03 11:47:09;;;;;;;4.37;2.87;;;13.30;99.90;;;;;;5071385;28;20203;-83
2021/10/03 11:49:40;;;;;;;8.30;3.23;;;13.20;99.90;;;;;;5063600;28;20222;-82
2021/10/03 11:52:08;;;;;;;5.03;3.10;;;13.00;99.90;;;;;;5067339;28;20563;-81
2021/10/03 11:54:37;;;;;;;6.90;3.70;;;13.00;99.90;;;;;;5054462;28;20238;-84
2021/10/03 11:57:27;;;;;;;5.43;3.80;;;13.00;99.90;;;;;;5053700;28;20567;-82
2021/10/03 12:00:06;;;;;;;6.13;3.23;;;13.30;99.90;;;;;;5065241;28;20227;-83
2021/10/03 12:02:38;;;;;;;3.93;2.73;;;13.40;99.90;;;;;;5072839;28;20219;-83
2021/10/03 12:05:07;;;;;;;3.13;2.03;;;13.30;99.90;;;;;;5064873;28;20589;-83
2021/10/03 12:07:34;;;;;;;2.23;1.40;;;13.20;99.90;;;;;;5072147;28;20282;-82
2021/10/03 12:10:05;;;;;;;2.23;1.63;;;13.00;99.90;;;;;;5065242;28;20283;-81
2021/10/03 12:12:55;;;;;;;2.70;1.80;;;13.10;99.90;;;;;;5063074;28;20196;-82
2021/10/03 12:15:46;;;;;;;2.63;1.67;;;13.20;99.90;;;;;;5066128;28;20282;-81
2021/10/03 12:18:29;;;;;;;5.87;1.00;;;13.00;99.90;;;;;;5060010;28;20228;-82
2021/10/03 12:20:58;;;;;;;2.27;0.80;;;13.00;99.90;;;;;;5067444;28;20219;-81
2021/10/03 12:23:55;;;;;;;2.63;0.83;;;12.90;99.90;;;;;;5071225;28;20290;-83
2021/10/03 12:26:29;;;;;;;2.87;0.93;;;12.90;99.90;;;;;;5055589;28;20204;-75
2021/10/03 12:29:01;;;;;;;2.20;0.90;;;12.80;99.90;;;;;;5067811;28;20202;-78
2021/10/03 12:31:45;;;;;;;1.00;0.80;;;12.80;99.90;;;;;;5047264;28;20682;-79
2021/10/03 12:34:35;;;;;;;1.63;0.80;;;12.80;99.90;;;;;;5058084;28;20281;-79
2021/10/03 12:37:06;;;;;;;2.80;0.80;;;12.80;99.90;;;;;;5044074;28;20223;-79
2021/10/03 12:39:35;;;;;;;2.67;0.80;;;12.80;99.90;;;;;;5065722;28;20234;-79
2021/10/03 12:42:11;;;;;;;1.00;0.70;;;12.90;99.90;;;;;;5068034;28;20215;-79
2021/10/03 12:44:41;;;;;;;2.00;0.90;;;13.00;99.90;;;;;;5070544;28;20281;-80
2021/10/03 12:47:09;;;;;;;1.00;0.90;;;13.10;99.90;;;;;;5070636;28;20294;-79
2021/10/03 12:49:39;;;;;;;2.00;0.97;;;13.10;99.90;;;;;;5072354;28;20299;-80
2021/10/03 12:52:08;;;;;;;1.50;0.90;;;13.30;99.90;;;;;;5068117;28;20282;-80
2021/10/03 12:54:35;;;;;;;1.90;1.10;;;13.30;99.90;;;;;;5058495;28;20923;-79
2021/10/03 12:57:03;;;;;;;2.17;1.10;;;13.30;99.90;;;;;;5066837;28;20206;-79